sensor_id;sensor_type;location;lat;lon;timestamp;P1;durP1;ratioP1;P2;durP2;ratioP2
66597;SDS011;57424;53.128;6.406;2022-09-09T00:03:27;5.15;;;2.50;;
66597;SDS011;57424;53.128;6.406;2022-09-09T00:08:39;3.20;;;2.30;;
66597;SDS011;57424;53.128;6.406;2022-09-09T00:11:07;2.75;;;2.42;;
66597;SDS011;57424;53.128;6.406;2022-09-09T00:13:38;3.78;;;2.72;;
66597;SDS011;57424;53.128;6.406;2022-09-09T00:16:24;2.70;;;2.20;;
66597;SDS011;57424;53.128;6.406;2022-09-09T00:21:18;2.70;;;2.42;;
66597;SDS011;57424;53.128;6.406;2022-09-09T00:23:51;4.50;;;2.90;;
66597;SDS011;57424;53.128;6.406;2022-09-09T00:29:03;3.40;;;2.70;;
66597;SDS011;57424;53.128;6.406;2022-09-09T00:31:36;2.70;;;2.40;;
66597;SDS011;57424;53.128;6.406;2022-09-09T00:34:05;2.70;;;2.30;;
66597;SDS011;57424;53.128;6.406;2022-09-09T00:36:37;2.53;;;2.10;;
66597;SDS011;57424;53.128;6.406;2022-09-09T00:39:04;3.13;;;2.40;;
66597;SDS011;57424;53.128;6.406;2022-09-09T00:44:31;2.65;;;2.30;;
66597;SDS011;57424;53.128;6.406;2022-09-09T00:47:10;2.63;;;2.40;;
66597;SDS011;57424;53.128;6.406;2022-09-09T00:55:46;2.78;;;2.40;;
66597;SDS011;57424;53.128;6.406;2022-09-09T00:58:18;2.78;;;2.42;;
66597;SDS011;57424;53.128;6.406;2022-09-09T01:00:44;3.75;;;2.55;;
66597;SDS011;57424;53.128;6.406;2022-09-09T01:11:03;3.10;;;2.40;;
66597;SDS011;57424;53.128;6.406;2022-09-09T01:13:30;2.70;;;2.25;;
66597;SDS011;57424;53.128;6.406;2022-09-09T01:15:59;3.88;;;2.22;;
66597;SDS011;57424;53.128;6.406;2022-09-09T01:18:28;3.85;;;2.30;;
66597;SDS011;57424;53.128;6.406;2022-09-09T01:23:37;4.78;;;2.20;;
66597;SDS011;57424;53.128;6.406;2022-09-09T01:28:46;2.65;;;2.08;;
66597;SDS011;57424;53.128;6.406;2022-09-09T01:31:18;2.58;;;1.98;;
66597;SDS011;57424;53.128;6.406;2022-09-09T01:33:46;2.80;;;2.10;;
66597;SDS011;57424;53.128;6.406;2022-09-09T01:36:18;2.55;;;2.35;;
66597;SDS011;57424;53.128;6.406;2022-09-09T01:39:05;2.75;;;1.98;;
66597;SDS011;57424;53.128;6.406;2022-09-09T01:41:31;2.25;;;1.85;;
66597;SDS011;57424;53.128;6.406;2022-09-09T01:43:57;2.22;;;2.03;;
66597;SDS011;57424;53.128;6.406;2022-09-09T01:46:22;2.20;;;2.00;;
66597;SDS011;57424;53.128;6.406;2022-09-09T01:48:50;2.85;;;2.10;;
66597;SDS011;57424;53.128;6.406;2022-09-09T01:51:17;3.65;;;2.20;;
66597;SDS011;57424;53.128;6.406;2022-09-09T01:53:42;4.00;;;2.17;;
66597;SDS011;57424;53.128;6.406;2022-09-09T01:56:21;2.53;;;2.33;;
66597;SDS011;57424;53.128;6.406;2022-09-09T01:59:27;3.20;;;2.30;;
66597;SDS011;57424;53.128;6.406;2022-09-09T02:02:21;2.40;;;2.20;;
66597;SDS011;57424;53.128;6.406;2022-09-09T02:05:02;2.50;;;2.10;;
66597;SDS011;57424;53.128;6.406;2022-09-09T02:07:40;2.60;;;2.10;;
66597;SDS011;57424;53.128;6.406;2022-09-09T02:10:19;2.95;;;2.17;;
66597;SDS011;57424;53.128;6.406;2022-09-09T02:12:56;2.88;;;2.08;;
66597;SDS011;57424;53.128;6.406;2022-09-09T02:18:04;2.63;;;2.20;;
66597;SDS011;57424;53.128;6.406;2022-09-09T02:20:33;3.28;;;1.95;;
66597;SDS011;57424;53.128;6.406;2022-09-09T02:23:02;2.67;;;2.03;;
66597;SDS011;57424;53.128;6.406;2022-09-09T02:25:30;3.88;;;2.03;;
66597;SDS011;57424;53.128;6.406;2022-09-09T02:27:56;2.65;;;2.20;;
66597;SDS011;57424;53.128;6.406;2022-09-09T02:30:25;2.97;;;2.00;;
66597;SDS011;57424;53.128;6.406;2022-09-09T02:32:54;2.22;;;2.03;;
66597;SDS011;57424;53.128;6.406;2022-09-09T02:35:23;4.40;;;1.90;;
66597;SDS011;57424;53.128;6.406;2022-09-09T02:37:51;2.42;;;2.05;;
66597;SDS011;57424;53.128;6.406;2022-09-09T02:40:19;2.85;;;2.00;;
66597;SDS011;57424;53.128;6.406;2022-09-09T02:42:46;1.92;;;1.73;;
66597;SDS011;57424;53.128;6.406;2022-09-09T02:45:17;2.20;;;2.00;;
66597;SDS011;57424;53.128;6.406;2022-09-09T02:47:50;2.35;;;1.90;;
66597;SDS011;57424;53.128;6.406;2022-09-09T02:50:22;3.72;;;2.20;;
66597;SDS011;57424;53.128;6.406;2022-09-09T02:55:24;2.10;;;1.90;;
66597;SDS011;57424;53.128;6.406;2022-09-09T02:57:59;2.20;;;2.00;;
66597;SDS011;57424;53.128;6.406;2022-09-09T03:00:27;3.10;;;2.20;;
66597;SDS011;57424;53.128;6.406;2022-09-09T03:02:53;2.65;;;2.10;;
66597;SDS011;57424;53.128;6.406;2022-09-09T03:05:19;2.47;;;1.83;;
66597;SDS011;57424;53.128;6.406;2022-09-09T03:07:46;3.22;;;1.80;;
66597;SDS011;57424;53.128;6.406;2022-09-09T03:10:12;2.13;;;1.90;;
66597;SDS011;57424;53.128;6.406;2022-09-09T03:12:38;2.10;;;1.90;;
66597;SDS011;57424;53.128;6.406;2022-09-09T03:15:04;3.10;;;2.25;;
66597;SDS011;57424;53.128;6.406;2022-09-09T03:17:31;4.30;;;2.03;;
66597;SDS011;57424;53.128;6.406;2022-09-09T03:19:57;2.50;;;2.08;;
66597;SDS011;57424;53.128;6.406;2022-09-09T03:22:23;3.55;;;2.22;;
66597;SDS011;57424;53.128;6.406;2022-09-09T03:24:50;2.35;;;1.90;;
66597;SDS011;57424;53.128;6.406;2022-09-09T03:27:16;2.45;;;1.90;;
66597;SDS011;57424;53.128;6.406;2022-09-09T03:29:42;2.35;;;1.80;;
66597;SDS011;57424;53.128;6.406;2022-09-09T03:32:08;2.30;;;1.90;;
66597;SDS011;57424;53.128;6.406;2022-09-09T03:34:35;3.20;;;2.58;;
66597;SDS011;57424;53.128;6.406;2022-09-09T03:37:04;2.08;;;1.83;;
66597;SDS011;57424;53.128;6.406;2022-09-09T03:39:30;3.20;;;1.85;;
66597;SDS011;57424;53.128;6.406;2022-09-09T03:41:56;1.92;;;1.60;;
66597;SDS011;57424;53.128;6.406;2022-09-09T03:44:21;3.30;;;2.10;;
66597;SDS011;57424;53.128;6.406;2022-09-09T03:46:47;2.15;;;1.70;;
66597;SDS011;57424;53.128;6.406;2022-09-09T03:49:12;3.47;;;1.73;;
66597;SDS011;57424;53.128;6.406;2022-09-09T03:51:38;2.13;;;1.83;;
66597;SDS011;57424;53.128;6.406;2022-09-09T03:54:05;1.97;;;1.67;;
66597;SDS011;57424;53.128;6.406;2022-09-09T03:58:59;2.40;;;1.88;;
66597;SDS011;57424;53.128;6.406;2022-09-09T04:01:24;2.65;;;1.90;;
66597;SDS011;57424;53.128;6.406;2022-09-09T04:03:50;2.85;;;2.08;;
66597;SDS011;57424;53.128;6.406;2022-09-09T04:06:17;2.45;;;1.90;;
66597;SDS011;57424;53.128;6.406;2022-09-09T04:08:44;2.03;;;1.83;;
66597;SDS011;57424;53.128;6.406;2022-09-09T04:11:13;2.22;;;1.80;;
66597;SDS011;57424;53.128;6.406;2022-09-09T04:13:40;2.37;;;1.83;;
66597;SDS011;57424;53.128;6.406;2022-09-09T04:16:07;2.22;;;1.80;;
66597;SDS011;57424;53.128;6.406;2022-09-09T04:18:35;2.35;;;1.70;;
66597;SDS011;57424;53.128;6.406;2022-09-09T04:21:00;1.85;;;1.60;;
66597;SDS011;57424;53.128;6.406;2022-09-09T04:23:27;3.53;;;1.77;;
66597;SDS011;57424;53.128;6.406;2022-09-09T04:25:59;2.13;;;1.70;;
66597;SDS011;57424;53.128;6.406;2022-09-09T04:28:26;2.35;;;1.77;;
66597;SDS011;57424;53.128;6.406;2022-09-09T04:30:54;1.95;;;1.75;;
66597;SDS011;57424;53.128;6.406;2022-09-09T04:35:53;2.75;;;1.60;;
66597;SDS011;57424;53.128;6.406;2022-09-09T04:38:18;1.38;;;1.27;;
66597;SDS011;57424;53.128;6.406;2022-09-09T04:40:47;1.55;;;1.45;;
66597;SDS011;57424;53.128;6.406;2022-09-09T04:43:13;3.00;;;1.65;;
66597;SDS011;57424;53.128;6.406;2022-09-09T04:45:39;3.15;;;1.90;;
66597;SDS011;57424;53.128;6.406;2022-09-09T04:48:06;1.75;;;1.63;;
66597;SDS011;57424;53.128;6.406;2022-09-09T04:50:31;2.80;;;1.50;;
66597;SDS011;57424;53.128;6.406;2022-09-09T04:53:01;1.92;;;1.50;;
66597;SDS011;57424;53.128;6.406;2022-09-09T04:55:27;2.75;;;1.80;;
66597;SDS011;57424;53.128;6.406;2022-09-09T04:57:53;2.03;;;1.73;;
66597;SDS011;57424;53.128;6.406;2022-09-09T05:00:19;1.80;;;1.70;;
66597;SDS011;57424;53.128;6.406;2022-09-09T05:02:44;2.40;;;1.60;;
66597;SDS011;57424;53.128;6.406;2022-09-09T05:05:10;2.28;;;1.60;;
66597;SDS011;57424;53.128;6.406;2022-09-09T05:07:36;2.78;;;1.60;;
66597;SDS011;57424;53.128;6.406;2022-09-09T05:10:02;1.55;;;1.40;;
66597;SDS011;57424;53.128;6.406;2022-09-09T05:12:30;2.38;;;1.70;;
66597;SDS011;57424;53.128;6.406;2022-09-09T05:14:56;1.67;;;1.50;;
66597;SDS011;57424;53.128;6.406;2022-09-09T05:17:22;1.77;;;1.65;;
66597;SDS011;57424;53.128;6.406;2022-09-09T05:19:48;1.60;;;1.50;;
66597;SDS011;57424;53.128;6.406;2022-09-09T05:22:17;2.03;;;1.70;;
66597;SDS011;57424;53.128;6.406;2022-09-09T05:24:45;1.98;;;1.75;;
66597;SDS011;57424;53.128;6.406;2022-09-09T05:27:10;1.60;;;1.50;;
66597;SDS011;57424;53.128;6.406;2022-09-09T05:29:37;2.78;;;1.80;;
66597;SDS011;57424;53.128;6.406;2022-09-09T05:32:03;1.83;;;1.42;;
66597;SDS011;57424;53.128;6.406;2022-09-09T05:34:29;2.95;;;1.70;;
66597;SDS011;57424;53.128;6.406;2022-09-09T05:36:55;3.22;;;1.60;;
66597;SDS011;57424;53.128;6.406;2022-09-09T05:39:20;2.03;;;1.35;;
66597;SDS011;57424;53.128;6.406;2022-09-09T05:41:46;1.48;;;1.38;;
66597;SDS011;57424;53.128;6.406;2022-09-09T05:44:11;1.83;;;1.50;;
66597;SDS011;57424;53.128;6.406;2022-09-09T05:46:38;1.83;;;1.70;;
66597;SDS011;57424;53.128;6.406;2022-09-09T05:49:04;1.83;;;1.50;;
66597;SDS011;57424;53.128;6.406;2022-09-09T05:51:30;2.15;;;1.40;;
66597;SDS011;57424;53.128;6.406;2022-09-09T05:53:56;1.70;;;1.48;;
66597;SDS011;57424;53.128;6.406;2022-09-09T05:56:25;1.20;;;1.10;;
66597;SDS011;57424;53.128;6.406;2022-09-09T05:58:53;1.73;;;1.30;;
66597;SDS011;57424;53.128;6.406;2022-09-09T06:01:20;1.60;;;1.30;;
66597;SDS011;57424;53.128;6.406;2022-09-09T06:03:51;2.10;;;1.40;;
66597;SDS011;57424;53.128;6.406;2022-09-09T06:06:19;1.65;;;1.30;;
66597;SDS011;57424;53.128;6.406;2022-09-09T06:08:46;1.70;;;1.30;;
66597;SDS011;57424;53.128;6.406;2022-09-09T06:11:16;3.28;;;1.70;;
66597;SDS011;57424;53.128;6.406;2022-09-09T06:13:44;1.67;;;1.50;;
66597;SDS011;57424;53.128;6.406;2022-09-09T06:16:11;3.70;;;1.70;;
66597;SDS011;57424;53.128;6.406;2022-09-09T06:18:38;2.13;;;1.60;;
66597;SDS011;57424;53.128;6.406;2022-09-09T06:21:05;1.90;;;1.40;;
66597;SDS011;57424;53.128;6.406;2022-09-09T06:23:34;2.08;;;1.27;;
66597;SDS011;57424;53.128;6.406;2022-09-09T06:26:13;1.30;;;1.20;;
66597;SDS011;57424;53.128;6.406;2022-09-09T06:28:43;1.98;;;1.38;;
66597;SDS011;57424;53.128;6.406;2022-09-09T06:31:11;2.03;;;1.52;;
66597;SDS011;57424;53.128;6.406;2022-09-09T06:38:39;1.80;;;1.50;;
66597;SDS011;57424;53.128;6.406;2022-09-09T06:41:07;1.58;;;1.23;;
66597;SDS011;57424;53.128;6.406;2022-09-09T06:43:34;2.10;;;1.42;;
66597;SDS011;57424;53.128;6.406;2022-09-09T06:46:02;1.75;;;1.58;;
66597;SDS011;57424;53.128;6.406;2022-09-09T06:48:33;1.83;;;1.13;;
66597;SDS011;57424;53.128;6.406;2022-09-09T06:53:30;2.47;;;1.40;;
66597;SDS011;57424;53.128;6.406;2022-09-09T06:56:02;2.63;;;1.35;;
66597;SDS011;57424;53.128;6.406;2022-09-09T06:58:42;2.15;;;1.20;;
66597;SDS011;57424;53.128;6.406;2022-09-09T07:01:12;1.98;;;1.25;;
66597;SDS011;57424;53.128;6.406;2022-09-09T07:03:40;1.83;;;1.30;;
66597;SDS011;57424;53.128;6.406;2022-09-09T07:06:07;3.30;;;1.40;;
66597;SDS011;57424;53.128;6.406;2022-09-09T07:08:39;1.75;;;1.20;;
66597;SDS011;57424;53.128;6.406;2022-09-09T07:11:07;1.40;;;1.30;;
66597;SDS011;57424;53.128;6.406;2022-09-09T07:13:33;1.38;;;1.25;;
66597;SDS011;57424;53.128;6.406;2022-09-09T07:16:03;6.43;;;1.65;;
66597;SDS011;57424;53.128;6.406;2022-09-09T07:18:34;1.92;;;1.45;;
66597;SDS011;57424;53.128;6.406;2022-09-09T07:21:00;1.95;;;1.20;;
66597;SDS011;57424;53.128;6.406;2022-09-09T07:23:27;3.45;;;1.30;;
66597;SDS011;57424;53.128;6.406;2022-09-09T07:25:52;1.30;;;1.13;;
66597;SDS011;57424;53.128;6.406;2022-09-09T07:28:19;2.35;;;1.40;;
66597;SDS011;57424;53.128;6.406;2022-09-09T07:30:57;1.67;;;1.38;;
66597;SDS011;57424;53.128;6.406;2022-09-09T07:33:26;1.65;;;1.40;;
66597;SDS011;57424;53.128;6.406;2022-09-09T07:35:52;1.30;;;1.20;;
66597;SDS011;57424;53.128;6.406;2022-09-09T07:38:19;1.73;;;1.20;;
66597;SDS011;57424;53.128;6.406;2022-09-09T07:40:45;4.05;;;1.40;;
66597;SDS011;57424;53.128;6.406;2022-09-09T07:43:11;1.67;;;1.20;;
66597;SDS011;57424;53.128;6.406;2022-09-09T07:45:36;5.07;;;1.70;;
66597;SDS011;57424;53.128;6.406;2022-09-09T07:48:02;2.20;;;1.30;;
66597;SDS011;57424;53.128;6.406;2022-09-09T07:50:28;1.30;;;1.20;;
66597;SDS011;57424;53.128;6.406;2022-09-09T07:52:54;2.03;;;1.30;;
66597;SDS011;57424;53.128;6.406;2022-09-09T07:55:20;1.73;;;1.35;;
66597;SDS011;57424;53.128;6.406;2022-09-09T07:57:46;1.90;;;1.30;;
66597;SDS011;57424;53.128;6.406;2022-09-09T08:00:12;2.15;;;1.35;;
66597;SDS011;57424;53.128;6.406;2022-09-09T08:02:39;2.03;;;1.40;;
66597;SDS011;57424;53.128;6.406;2022-09-09T08:05:05;2.72;;;1.35;;
66597;SDS011;57424;53.128;6.406;2022-09-09T08:07:31;3.80;;;1.60;;
66597;SDS011;57424;53.128;6.406;2022-09-09T08:09:57;3.65;;;1.40;;
66597;SDS011;57424;53.128;6.406;2022-09-09T08:12:22;2.13;;;1.60;;
66597;SDS011;57424;53.128;6.406;2022-09-09T08:14:48;1.88;;;1.45;;
66597;SDS011;57424;53.128;6.406;2022-09-09T08:17:14;4.20;;;1.50;;
66597;SDS011;57424;53.128;6.406;2022-09-09T08:19:40;1.40;;;1.30;;
66597;SDS011;57424;53.128;6.406;2022-09-09T08:22:05;6.10;;;1.45;;
66597;SDS011;57424;53.128;6.406;2022-09-09T08:24:32;4.68;;;1.65;;
66597;SDS011;57424;53.128;6.406;2022-09-09T08:26:58;9.40;;;1.98;;
66597;SDS011;57424;53.128;6.406;2022-09-09T08:29:24;4.32;;;1.55;;
66597;SDS011;57424;53.128;6.406;2022-09-09T08:31:51;1.77;;;1.40;;
66597;SDS011;57424;53.128;6.406;2022-09-09T08:34:19;1.98;;;1.58;;
66597;SDS011;57424;53.128;6.406;2022-09-09T08:36:46;3.28;;;1.60;;
66597;SDS011;57424;53.128;6.406;2022-09-09T08:39:14;1.50;;;1.40;;
66597;SDS011;57424;53.128;6.406;2022-09-09T08:41:48;2.67;;;1.33;;
66597;SDS011;57424;53.128;6.406;2022-09-09T08:50:26;1.80;;;1.30;;
66597;SDS011;57424;53.128;6.406;2022-09-09T08:55:39;1.92;;;1.40;;
66597;SDS011;57424;53.128;6.406;2022-09-09T09:03:56;2.88;;;1.50;;
66597;SDS011;57424;53.128;6.406;2022-09-09T09:06:58;2.70;;;1.48;;
66597;SDS011;57424;53.128;6.406;2022-09-09T09:09:42;3.08;;;1.70;;
66597;SDS011;57424;53.128;6.406;2022-09-09T09:12:24;3.38;;;1.45;;
66597;SDS011;57424;53.128;6.406;2022-09-09T09:14:51;3.05;;;1.30;;
66597;SDS011;57424;53.128;6.406;2022-09-09T09:17:21;2.05;;;1.58;;
66597;SDS011;57424;53.128;6.406;2022-09-09T09:19:50;6.28;;;1.60;;
66597;SDS011;57424;53.128;6.406;2022-09-09T09:22:17;3.53;;;1.63;;
66597;SDS011;57424;53.128;6.406;2022-09-09T09:24:55;1.58;;;1.20;;
66597;SDS011;57424;53.128;6.406;2022-09-09T09:27:36;6.90;;;1.40;;
66597;SDS011;57424;53.128;6.406;2022-09-09T09:30:16;2.30;;;1.40;;
66597;SDS011;57424;53.128;6.406;2022-09-09T09:33:00;2.60;;;1.90;;
66597;SDS011;57424;53.128;6.406;2022-09-09T09:35:33;4.90;;;1.70;;
66597;SDS011;57424;53.128;6.406;2022-09-09T09:37:59;3.00;;;1.35;;
66597;SDS011;57424;53.128;6.406;2022-09-09T09:40:25;7.85;;;1.90;;
66597;SDS011;57424;53.128;6.406;2022-09-09T09:42:53;10.10;;;1.85;;
66597;SDS011;57424;53.128;6.406;2022-09-09T09:45:34;6.15;;;1.70;;
66597;SDS011;57424;53.128;6.406;2022-09-09T09:48:13;3.58;;;1.58;;
66597;SDS011;57424;53.128;6.406;2022-09-09T09:50:52;2.58;;;1.70;;
66597;SDS011;57424;53.128;6.406;2022-09-09T09:53:21;4.20;;;1.45;;
66597;SDS011;57424;53.128;6.406;2022-09-09T09:56:00;3.00;;;1.48;;
66597;SDS011;57424;53.128;6.406;2022-09-09T09:58:32;2.38;;;1.30;;
66597;SDS011;57424;53.128;6.406;2022-09-09T10:01:29;3.33;;;1.23;;
66597;SDS011;57424;53.128;6.406;2022-09-09T10:04:17;3.60;;;1.40;;
66597;SDS011;57424;53.128;6.406;2022-09-09T10:06:45;4.82;;;1.40;;
66597;SDS011;57424;53.128;6.406;2022-09-09T10:20:18;4.00;;;1.52;;
66597;SDS011;57424;53.128;6.406;2022-09-09T10:23:44;3.97;;;1.60;;
66597;SDS011;57424;53.128;6.406;2022-09-09T10:26:16;7.38;;;1.92;;
66597;SDS011;57424;53.128;6.406;2022-09-09T10:31:34;6.32;;;1.70;;
66597;SDS011;57424;53.128;6.406;2022-09-09T10:34:38;5.50;;;1.65;;
66597;SDS011;57424;53.128;6.406;2022-09-09T10:40:33;8.88;;;1.40;;
66597;SDS011;57424;53.128;6.406;2022-09-09T10:43:49;7.60;;;1.30;;
66597;SDS011;57424;53.128;6.406;2022-09-09T10:45:55;6.78;;;1.63;;
66597;SDS011;57424;53.128;6.406;2022-09-09T10:57:10;7.03;;;1.60;;
66597;SDS011;57424;53.128;6.406;2022-09-09T10:59:43;6.63;;;1.48;;
66597;SDS011;57424;53.128;6.406;2022-09-09T11:02:18;4.57;;;1.27;;
66597;SDS011;57424;53.128;6.406;2022-09-09T11:04:52;4.82;;;1.50;;
66597;SDS011;57424;53.128;6.406;2022-09-09T11:10:02;4.53;;;1.35;;
66597;SDS011;57424;53.128;6.406;2022-09-09T11:12:32;2.97;;;0.90;;
66597;SDS011;57424;53.128;6.406;2022-09-09T11:15:04;5.00;;;1.30;;
66597;SDS011;57424;53.128;6.406;2022-09-09T11:17:42;5.13;;;1.70;;
66597;SDS011;57424;53.128;6.406;2022-09-09T11:20:14;4.65;;;1.77;;
66597;SDS011;57424;53.128;6.406;2022-09-09T11:33:36;2.70;;;1.50;;
66597;SDS011;57424;53.128;6.406;2022-09-09T11:36:31;3.53;;;1.48;;
66597;SDS011;57424;53.128;6.406;2022-09-09T11:41:48;3.78;;;1.58;;
66597;SDS011;57424;53.128;6.406;2022-09-09T11:44:26;5.30;;;1.40;;
66597;SDS011;57424;53.128;6.406;2022-09-09T11:46:54;3.92;;;1.35;;
66597;SDS011;57424;53.128;6.406;2022-09-09T11:49:29;3.70;;;1.80;;
66597;SDS011;57424;53.128;6.406;2022-09-09T11:52:11;4.97;;;1.48;;
66597;SDS011;57424;53.128;6.406;2022-09-09T11:54:57;3.08;;;1.15;;
66597;SDS011;57424;53.128;6.406;2022-09-09T11:57:34;6.45;;;1.50;;
66597;SDS011;57424;53.128;6.406;2022-09-09T12:00:01;5.25;;;1.45;;
66597;SDS011;57424;53.128;6.406;2022-09-09T12:02:28;4.47;;;1.20;;
66597;SDS011;57424;53.128;6.406;2022-09-09T12:05:07;4.65;;;1.20;;
66597;SDS011;57424;53.128;6.406;2022-09-09T12:12:50;3.85;;;1.20;;
66597;SDS011;57424;53.128;6.406;2022-09-09T12:17:49;6.90;;;1.52;;
66597;SDS011;57424;53.128;6.406;2022-09-09T12:23:02;6.15;;;1.67;;
66597;SDS011;57424;53.128;6.406;2022-09-09T12:34:04;5.72;;;1.48;;
66597;SDS011;57424;53.128;6.406;2022-09-09T12:36:55;3.65;;;1.38;;
66597;SDS011;57424;53.128;6.406;2022-09-09T12:39:37;5.88;;;1.30;;
66597;SDS011;57424;53.128;6.406;2022-09-09T12:42:17;5.47;;;1.08;;
66597;SDS011;57424;53.128;6.406;2022-09-09T12:44:52;4.30;;;1.30;;
66597;SDS011;57424;53.128;6.406;2022-09-09T12:47:17;5.05;;;1.50;;
66597;SDS011;57424;53.128;6.406;2022-09-09T12:49:45;5.35;;;1.50;;
66597;SDS011;57424;53.128;6.406;2022-09-09T12:52:26;2.63;;;1.23;;
66597;SDS011;57424;53.128;6.406;2022-09-09T12:54:55;6.50;;;1.80;;
66597;SDS011;57424;53.128;6.406;2022-09-09T12:57:22;5.90;;;1.70;;
66597;SDS011;57424;53.128;6.406;2022-09-09T12:59:50;6.43;;;2.08;;
66597;SDS011;57424;53.128;6.406;2022-09-09T13:02:22;3.88;;;1.38;;
66597;SDS011;57424;53.128;6.406;2022-09-09T13:04:50;4.55;;;1.23;;
66597;SDS011;57424;53.128;6.406;2022-09-09T13:07:17;4.68;;;1.65;;
66597;SDS011;57424;53.128;6.406;2022-09-09T13:09:44;3.83;;;1.25;;
66597;SDS011;57424;53.128;6.406;2022-09-09T13:12:15;4.30;;;1.55;;
66597;SDS011;57424;53.128;6.406;2022-09-09T13:14:44;3.20;;;1.40;;
66597;SDS011;57424;53.128;6.406;2022-09-09T13:17:21;6.82;;;1.50;;
66597;SDS011;57424;53.128;6.406;2022-09-09T13:19:48;4.53;;;1.40;;
66597;SDS011;57424;53.128;6.406;2022-09-09T13:25:02;4.53;;;1.38;;
66597;SDS011;57424;53.128;6.406;2022-09-09T13:27:32;3.60;;;1.20;;
66597;SDS011;57424;53.128;6.406;2022-09-09T13:30:00;5.00;;;1.42;;
66597;SDS011;57424;53.128;6.406;2022-09-09T13:32:28;7.30;;;1.38;;
66597;SDS011;57424;53.128;6.406;2022-09-09T13:34:57;4.40;;;1.48;;
66597;SDS011;57424;53.128;6.406;2022-09-09T13:39:53;3.90;;;1.25;;
66597;SDS011;57424;53.128;6.406;2022-09-09T13:42:24;4.85;;;1.73;;
66597;SDS011;57424;53.128;6.406;2022-09-09T13:44:57;4.60;;;1.48;;
66597;SDS011;57424;53.128;6.406;2022-09-09T13:47:29;5.35;;;1.33;;
66597;SDS011;57424;53.128;6.406;2022-09-09T13:49:57;4.03;;;1.30;;
66597;SDS011;57424;53.128;6.406;2022-09-09T13:52:22;3.30;;;1.10;;
66597;SDS011;57424;53.128;6.406;2022-09-09T13:54:49;5.05;;;1.33;;
66597;SDS011;57424;53.128;6.406;2022-09-09T13:57:17;3.58;;;1.52;;
66597;SDS011;57424;53.128;6.406;2022-09-09T13:59:45;4.30;;;1.13;;
66597;SDS011;57424;53.128;6.406;2022-09-09T14:02:11;2.55;;;1.13;;
66597;SDS011;57424;53.128;6.406;2022-09-09T14:04:37;4.05;;;1.35;;
66597;SDS011;57424;53.128;6.406;2022-09-09T14:07:07;3.15;;;1.15;;
66597;SDS011;57424;53.128;6.406;2022-09-09T14:09:38;3.08;;;1.40;;
66597;SDS011;57424;53.128;6.406;2022-09-09T14:12:04;3.90;;;1.20;;
66597;SDS011;57424;53.128;6.406;2022-09-09T14:14:30;3.85;;;1.50;;
66597;SDS011;57424;53.128;6.406;2022-09-09T14:16:55;3.97;;;1.70;;
66597;SDS011;57424;53.128;6.406;2022-09-09T14:19:21;3.40;;;1.20;;
66597;SDS011;57424;53.128;6.406;2022-09-09T14:21:47;3.38;;;1.45;;
66597;SDS011;57424;53.128;6.406;2022-09-09T14:24:13;4.63;;;1.30;;
66597;SDS011;57424;53.128;6.406;2022-09-09T14:26:39;4.57;;;1.20;;
66597;SDS011;57424;53.128;6.406;2022-09-09T14:29:05;2.65;;;1.20;;
66597;SDS011;57424;53.128;6.406;2022-09-09T14:31:30;2.50;;;1.10;;
66597;SDS011;57424;53.128;6.406;2022-09-09T14:33:56;1.83;;;1.20;;
66597;SDS011;57424;53.128;6.406;2022-09-09T14:36:22;3.17;;;1.17;;
66597;SDS011;57424;53.128;6.406;2022-09-09T14:38:49;2.78;;;1.25;;
66597;SDS011;57424;53.128;6.406;2022-09-09T14:41:15;3.20;;;1.20;;
66597;SDS011;57424;53.128;6.406;2022-09-09T14:43:42;2.88;;;1.40;;
66597;SDS011;57424;53.128;6.406;2022-09-09T14:46:09;3.42;;;1.23;;
66597;SDS011;57424;53.128;6.406;2022-09-09T14:48:37;3.70;;;1.08;;
66597;SDS011;57424;53.128;6.406;2022-09-09T14:53:34;2.70;;;1.10;;
66597;SDS011;57424;53.128;6.406;2022-09-09T14:56:10;3.97;;;1.17;;
66597;SDS011;57424;53.128;6.406;2022-09-09T14:58:40;1.63;;;0.98;;
66597;SDS011;57424;53.128;6.406;2022-09-09T15:01:16;2.50;;;1.10;;
66597;SDS011;57424;53.128;6.406;2022-09-09T15:03:48;3.60;;;1.33;;
66597;SDS011;57424;53.128;6.406;2022-09-09T15:06:15;2.97;;;1.10;;
66597;SDS011;57424;53.128;6.406;2022-09-09T15:08:41;1.98;;;1.00;;
66597;SDS011;57424;53.128;6.406;2022-09-09T15:11:09;3.83;;;1.05;;
66597;SDS011;57424;53.128;6.406;2022-09-09T15:13:36;2.33;;;1.00;;
66597;SDS011;57424;53.128;6.406;2022-09-09T15:16:03;6.30;;;0.98;;
66597;SDS011;57424;53.128;6.406;2022-09-09T15:20:58;2.20;;;0.93;;
66597;SDS011;57424;53.128;6.406;2022-09-09T15:23:24;2.23;;;1.50;;
66597;SDS011;57424;53.128;6.406;2022-09-09T15:25:54;2.33;;;1.15;;
66597;SDS011;57424;53.128;6.406;2022-09-09T15:28:21;3.88;;;1.00;;
66597;SDS011;57424;53.128;6.406;2022-09-09T15:30:48;3.50;;;1.13;;
66597;SDS011;57424;53.128;6.406;2022-09-09T15:33:20;2.03;;;0.90;;
66597;SDS011;57424;53.128;6.406;2022-09-09T15:35:47;1.63;;;0.80;;
66597;SDS011;57424;53.128;6.406;2022-09-09T15:40:41;1.70;;;1.03;;
66597;SDS011;57424;53.128;6.406;2022-09-09T15:43:07;2.65;;;1.20;;
66597;SDS011;57424;53.128;6.406;2022-09-09T15:45:34;1.88;;;0.95;;
66597;SDS011;57424;53.128;6.406;2022-09-09T15:48:00;2.67;;;0.82;;
66597;SDS011;57424;53.128;6.406;2022-09-09T15:50:26;2.00;;;0.80;;
66597;SDS011;57424;53.128;6.406;2022-09-09T15:52:52;3.85;;;1.10;;
66597;SDS011;57424;53.128;6.406;2022-09-09T15:55:18;1.70;;;1.10;;
66597;SDS011;57424;53.128;6.406;2022-09-09T15:57:45;1.67;;;1.05;;
66597;SDS011;57424;53.128;6.406;2022-09-09T16:00:11;1.33;;;0.98;;
66597;SDS011;57424;53.128;6.406;2022-09-09T16:02:38;1.67;;;0.93;;
66597;SDS011;57424;53.128;6.406;2022-09-09T16:05:04;2.50;;;0.90;;
66597;SDS011;57424;53.128;6.406;2022-09-09T16:07:30;1.35;;;0.77;;
66597;SDS011;57424;53.128;6.406;2022-09-09T16:09:56;2.20;;;1.00;;
66597;SDS011;57424;53.128;6.406;2022-09-09T16:12:22;2.60;;;1.02;;
66597;SDS011;57424;53.128;6.406;2022-09-09T16:14:47;1.92;;;1.10;;
66597;SDS011;57424;53.128;6.406;2022-09-09T16:17:13;1.45;;;0.80;;
66597;SDS011;57424;53.128;6.406;2022-09-09T16:19:40;2.08;;;0.88;;
66597;SDS011;57424;53.128;6.406;2022-09-09T16:22:05;1.05;;;0.80;;
66597;SDS011;57424;53.128;6.406;2022-09-09T16:24:31;2.90;;;0.88;;
66597;SDS011;57424;53.128;6.406;2022-09-09T16:26:57;2.38;;;0.98;;
66597;SDS011;57424;53.128;6.406;2022-09-09T16:29:23;1.35;;;1.00;;
66597;SDS011;57424;53.128;6.406;2022-09-09T16:31:52;1.38;;;0.95;;
66597;SDS011;57424;53.128;6.406;2022-09-09T16:34:18;1.60;;;0.90;;
66597;SDS011;57424;53.128;6.406;2022-09-09T16:36:45;2.38;;;1.00;;
66597;SDS011;57424;53.128;6.406;2022-09-09T16:39:12;2.25;;;1.10;;
66597;SDS011;57424;53.128;6.406;2022-09-09T16:41:40;1.90;;;0.85;;
66597;SDS011;57424;53.128;6.406;2022-09-09T16:44:07;1.30;;;0.70;;
66597;SDS011;57424;53.128;6.406;2022-09-09T16:46:34;2.58;;;1.05;;
66597;SDS011;57424;53.128;6.406;2022-09-09T16:49:05;3.50;;;0.98;;
66597;SDS011;57424;53.128;6.406;2022-09-09T16:51:34;2.15;;;1.20;;
66597;SDS011;57424;53.128;6.406;2022-09-09T16:54:10;2.65;;;1.00;;
66597;SDS011;57424;53.128;6.406;2022-09-09T16:56:38;4.22;;;1.15;;
66597;SDS011;57424;53.128;6.406;2022-09-09T16:59:12;3.45;;;0.80;;
66597;SDS011;57424;53.128;6.406;2022-09-09T17:01:43;2.25;;;1.13;;
66597;SDS011;57424;53.128;6.406;2022-09-09T17:04:11;2.10;;;1.00;;
66597;SDS011;57424;53.128;6.406;2022-09-09T17:06:45;1.83;;;0.95;;
66597;SDS011;57424;53.128;6.406;2022-09-09T17:09:12;2.80;;;1.10;;
66597;SDS011;57424;53.128;6.406;2022-09-09T17:11:38;1.52;;;0.70;;
66597;SDS011;57424;53.128;6.406;2022-09-09T17:14:05;1.50;;;1.00;;
66597;SDS011;57424;53.128;6.406;2022-09-09T17:16:31;1.63;;;0.93;;
66597;SDS011;57424;53.128;6.406;2022-09-09T17:19:02;1.17;;;0.90;;
66597;SDS011;57424;53.128;6.406;2022-09-09T17:21:29;1.23;;;0.82;;